Terminal Aerodrome Forecast
Issued by NWS Tallahassee, FL

Current Version | Previous Version | Text Only | Print | Product List | Glossary On
Versions: 1 2 3 4 5 6 7 8 9 10 11 12 13 14
000
FTUS42 KTAE 260928 AAA
TAFTLH
TAF AMD
KTLH 260928Z 2609/2706 11003KT P6SM FEW035 BKN070
     FM261100 11004KT 5SM BR SCT004 BKN015
     FM261400 15007KT P6SM SCT025 BKN050 PROB30 2620/2623 VRB15G25KT
      3SM TS OVC025CB
     FM262300 VRB03KT P6SM FEW050 SCT100 BKN200=

USA.gov is the U.S. government's official web portal to all federal, state and local government web resources and services.